Plant City, FL (33565)

9:29 AM EDT on July 27, 2016 (GMT -0400)
Bull's Backyard | | Change Station

Elev 138 ft 28.11 °N, 82.15 °W | Updated 7 seconds ago

Clear
Clear
81.7 °F
Feels Like 90 °F
N
1.0
Wind Variable Wind from South
Gusts 2.0 mph

Today
High -- | Low -- °F
--% Chance of Precip.
Yesterday
High -- | Low -- °F
Precip. -- in
Pressure 30.13 in
Visibility 10.0 miles
Clouds Clear
Heat Index 90 °F
Dew Point 78 °F
Humidity 88%
Rainfall 0.03 in
Snow Depth Not available.
6:48 AM 8:21 PM
Last Quarter, 43% visible
METAR KPCM 271315Z AUTO 14003KT 10SM CLR 29/26 A3013 RMK AO2
Pressure 30.13 in
Visibility 10.0 miles
Clouds Clear
Heat Index 90 °F
Dew Point 78 °F
Humidity 88%
Rainfall 0.03 in
Snow Depth Not available.
6:48 AM 8:21 PM
Last Quarter, 43% visible
METAR KPCM 271315Z AUTO 14003KT 10SM CLR 29/26 A3013 RMK AO2

10-Day Weather Forecast

Almanac

Astronomy

Jul. 27, 2016 Rise Set
Actual Time
Civil Twilight
Nautical Twilight
Astronomical Twilight
Moon
Length of Visible Light
Length of Day
Tomorrow will be .
, % of the Moon is Illuminated

Today's Extremes

State Highs State Lows

Community

WunderPhotos

Upload Photos

1,927,842 photos uploaded!

WunderBlog® & News

Nearby

Air Quality

  Air Quality AQ Index Pollutant
Not available.

Snow Depth

Station Depth Elevation

Earthquake Activity

City Distance Mag. Time & Date
Minimum magnitude displayed is 2.5.

Coastal Water Temperatures

Place Temperature

Stations

Nearby Weather Stations

Station Location Temp. Windchill Dew Point Humidity Wind Precip. Elev Updated Type
                   

Watches & Warnings

There are currently no watches in effect.